createdAt,value
2019-02-19T00:01:58.513Z,243.03
2019-02-19T00:04:24.876Z,254.10
2019-02-19T00:06:51.221Z,245.73
2019-02-19T00:09:17.632Z,256.60
2019-02-19T00:11:44.047Z,246.03
2019-02-19T00:14:10.372Z,244.53
2019-02-19T00:16:37.743Z,250.00
2019-02-19T00:19:04.109Z,248.13
2019-02-19T00:21:30.480Z,249.87
2019-02-19T00:23:56.829Z,232.73
2019-02-19T00:26:23.160Z,244.87
2019-02-19T00:28:49.531Z,249.47
2019-02-19T00:31:15.913Z,241.53
2019-02-19T00:33:42.264Z,241.67
2019-02-19T00:36:08.631Z,250.07
2019-02-19T00:38:34.995Z,248.27
2019-02-19T00:41:01.382Z,238.60
2019-02-19T00:43:30.920Z,231.00
2019-02-19T00:45:57.265Z,251.63
2019-02-19T00:48:23.683Z,240.17
2019-02-19T00:50:50.043Z,220.63
2019-02-19T00:53:16.399Z,221.53
2019-02-19T00:55:42.814Z,224.90
2019-02-19T00:58:09.187Z,235.00
2019-02-19T01:00:35.565Z,224.07
2019-02-19T01:03:01.928Z,209.17
2019-02-19T01:05:28.392Z,227.27
2019-02-19T01:07:54.774Z,228.53
2019-02-19T01:10:21.142Z,221.07
2019-02-19T01:12:47.526Z,215.30
2019-02-19T01:15:13.921Z,221.10
2019-02-19T01:17:40.287Z,230.23
2019-02-19T01:20:08.195Z,253.80
2019-02-19T01:22:34.550Z,236.63
2019-02-19T01:25:00.963Z,246.20
2019-02-19T01:27:27.290Z,219.93
2019-02-19T01:29:53.691Z,226.23
2019-02-19T01:32:20.059Z,241.73
2019-02-19T01:34:46.446Z,244.23
2019-02-19T01:37:12.819Z,227.83
2019-02-19T01:39:39.223Z,233.37
2019-02-19T01:42:05.541Z,223.27
2019-02-19T01:44:31.936Z,228.43
2019-02-19T01:46:58.330Z,223.53
2019-02-19T01:49:24.718Z,225.60
2019-02-19T01:51:51.155Z,224.03
2019-02-19T01:54:17.552Z,216.17
2019-02-19T01:56:43.910Z,221.30
2019-02-19T01:59:10.214Z,224.80
2019-02-19T02:01:36.612Z,216.00
2019-02-19T02:04:02.974Z,209.67
2019-02-19T02:06:29.480Z,224.07
2019-02-19T02:08:55.841Z,211.20
2019-02-19T02:11:22.263Z,210.93
2019-02-19T02:13:48.657Z,200.53
2019-02-19T02:16:15.003Z,200.60
2019-02-19T02:18:41.370Z,216.33
2019-02-19T02:21:07.718Z,206.13
2019-02-19T02:23:34.085Z,209.07
2019-02-19T02:26:00.429Z,209.10
2019-02-19T02:28:26.820Z,205.10
2019-02-19T02:30:53.319Z,204.57
2019-02-19T02:33:19.714Z,200.97
2019-02-19T02:35:46.109Z,190.77
2019-02-19T02:38:12.475Z,199.80
2019-02-19T02:40:38.875Z,195.60
2019-02-19T02:43:05.234Z,199.67
2019-02-19T02:45:31.630Z,197.67
2019-02-19T02:47:57.983Z,210.77
2019-02-19T02:50:24.342Z,186.23
2019-02-19T02:52:50.721Z,197.10
2019-02-19T02:55:17.249Z,190.80
2019-02-19T02:57:43.621Z,189.60
2019-02-19T03:00:11.845Z,214.03
2019-02-19T03:02:38.193Z,192.20
2019-02-19T03:05:04.773Z,193.23
2019-02-19T03:07:33.054Z,204.67
2019-02-19T03:09:59.419Z,190.83
2019-02-19T03:12:25.819Z,206.13
2019-02-19T03:14:52.168Z,216.80
2019-02-19T03:17:18.639Z,216.50
2019-02-19T03:19:45.017Z,201.63
2019-02-19T03:22:11.456Z,199.63
2019-02-19T03:24:37.830Z,214.07
2019-02-19T03:27:04.221Z,199.43
2019-02-19T03:29:30.619Z,197.47
2019-02-19T03:31:57.007Z,207.40
2019-02-19T03:34:24.448Z,191.00
2019-02-19T03:36:50.863Z,195.23
2019-02-19T03:39:17.196Z,186.33
2019-02-19T03:41:43.578Z,192.90
2019-02-19T03:44:09.922Z,209.27
2019-02-19T03:46:36.411Z,203.27
2019-02-19T03:49:02.747Z,208.77
2019-02-19T03:51:29.168Z,221.73
2019-02-19T03:53:55.632Z,219.17
2019-02-19T03:56:21.992Z,282.73
2019-02-19T03:58:48.521Z,233.87
2019-02-19T04:01:14.935Z,221.40
2019-02-19T04:03:42.331Z,230.50
2019-02-19T04:06:08.810Z,208.93
2019-02-19T04:08:35.209Z,213.43
2019-02-19T04:11:01.617Z,215.17
2019-02-19T04:13:27.967Z,202.77
2019-02-19T04:15:54.401Z,214.87
2019-02-19T04:18:23.524Z,197.03
2019-02-19T04:20:49.946Z,213.30
2019-02-19T04:23:16.305Z,218.53
2019-02-19T04:25:43.841Z,207.40
2019-02-19T04:28:10.170Z,229.60
2019-02-19T04:30:36.552Z,222.23
2019-02-19T04:33:02.909Z,199.87
2019-02-19T04:35:29.349Z,234.60
2019-02-19T04:37:55.764Z,197.23
2019-02-19T04:40:22.127Z,191.37
2019-02-19T04:42:48.595Z,200.63
2019-02-19T04:45:15.039Z,203.77
2019-02-19T04:47:41.408Z,196.77
2019-02-19T04:50:07.907Z,210.90
2019-02-19T04:52:34.242Z,222.67
2019-02-19T04:55:00.585Z,209.77
2019-02-19T04:57:27.012Z,230.47
2019-02-19T04:59:53.367Z,238.03
2019-02-19T05:02:19.692Z,240.13
2019-02-19T05:04:46.080Z,233.20
2019-02-19T05:07:12.448Z,238.00
2019-02-19T05:09:38.799Z,232.40
2019-02-19T05:12:05.163Z,243.57
2019-02-19T05:14:31.580Z,240.73
2019-02-19T05:16:58.009Z,255.17
2019-02-19T05:19:24.372Z,252.23
2019-02-19T05:21:50.740Z,239.80
2019-02-19T05:24:17.096Z,253.17
2019-02-19T05:26:43.479Z,250.60
2019-02-19T05:29:09.825Z,237.83
2019-02-19T05:31:36.167Z,252.97
2019-02-19T05:34:02.564Z,264.40
2019-02-19T05:36:28.920Z,243.33
2019-02-19T05:38:55.273Z,265.53
2019-02-19T05:41:21.700Z,263.90
2019-02-19T05:43:48.064Z,256.50
2019-02-19T05:46:14.480Z,261.40
2019-02-19T05:48:40.864Z,253.00
2019-02-19T05:51:07.329Z,246.97
2019-02-19T05:53:34.803Z,242.33
2019-02-19T05:56:01.173Z,250.63
2019-02-19T05:58:27.581Z,230.57
2019-02-19T06:00:53.921Z,240.33
2019-02-19T06:03:20.298Z,251.70
2019-02-19T06:05:46.693Z,248.53
2019-02-19T06:08:13.046Z,237.93
2019-02-19T06:10:39.475Z,255.20
2019-02-19T06:13:05.943Z,246.17
2019-02-19T06:15:32.361Z,249.57
2019-02-19T06:17:58.730Z,243.53
2019-02-19T06:20:25.106Z,232.87
2019-02-19T06:22:51.485Z,227.63
2019-02-19T06:25:17.897Z,223.07
2019-02-19T06:27:44.234Z,216.17
2019-02-19T06:30:11.915Z,222.73
2019-02-19T06:32:38.225Z,207.73
2019-02-19T06:35:05.643Z,215.57
2019-02-19T06:37:31.965Z,226.73
2019-02-19T06:39:58.377Z,220.07
2019-02-19T06:42:24.747Z,227.93
2019-02-19T06:44:51.123Z,206.37
2019-02-19T06:47:17.479Z,207.57
2019-02-19T06:49:43.872Z,206.87
2019-02-19T06:52:10.235Z,217.60
2019-02-19T06:54:36.629Z,223.17
2019-02-19T06:57:02.992Z,199.37
2019-02-19T06:59:29.379Z,192.50
2019-02-19T07:02:03.474Z,204.77
2019-02-19T07:04:31.785Z,193.07
2019-02-19T07:06:58.256Z,174.17
2019-02-19T07:09:24.649Z,207.13
2019-02-19T07:11:51.098Z,191.07
2019-02-19T07:14:17.432Z,179.20
2019-02-19T07:16:43.909Z,179.57
2019-02-19T07:19:10.299Z,188.93
2019-02-19T07:21:36.691Z,184.23
2019-02-19T07:24:04.672Z,157.93
2019-02-19T07:26:31.250Z,170.43
2019-02-19T07:28:57.662Z,160.83
2019-02-19T07:31:24.027Z,163.63
2019-02-19T07:33:51.291Z,157.80
2019-02-19T07:36:17.789Z,153.87
2019-02-19T07:38:44.193Z,145.43
2019-02-19T07:41:10.527Z,135.27
2019-02-19T07:43:36.883Z,134.90
2019-02-19T07:46:03.186Z,124.63
2019-02-19T07:48:29.584Z,112.47
2019-02-19T07:50:55.924Z,114.07
2019-02-19T07:53:22.335Z,109.77
2019-02-19T07:55:48.716Z,110.93
2019-02-19T07:58:15.124Z,115.63
2019-02-19T08:00:41.474Z,92.80
2019-02-19T08:03:07.860Z,90.03
2019-02-19T08:05:34.219Z,92.80
2019-02-19T08:08:00.568Z,84.90
2019-02-19T08:10:26.932Z,88.80
2019-02-19T08:12:53.327Z,85.70
2019-02-19T08:15:19.704Z,86.60
2019-02-19T08:17:46.065Z,78.93
2019-02-19T08:20:15.787Z,92.03
2019-02-19T08:22:40.755Z,80.97
2019-02-19T08:25:07.226Z,86.10
2019-02-19T08:27:33.582Z,80.97
2019-02-19T08:30:00.092Z,76.10
2019-02-19T08:32:26.616Z,83.30
2019-02-19T08:34:53.080Z,75.30
2019-02-19T08:37:19.507Z,75.43
2019-02-19T08:39:45.976Z,69.90
2019-02-19T08:42:12.349Z,68.63
2019-02-19T08:44:38.780Z,65.67
2019-02-19T08:47:05.092Z,68.83
2019-02-19T08:49:31.487Z,64.97
2019-02-19T08:51:57.831Z,61.90
2019-02-19T08:54:24.244Z,65.43
2019-02-19T08:56:50.621Z,50.67
2019-02-19T08:59:17.006Z,51.93
2019-02-19T09:01:43.353Z,51.73
2019-02-19T09:04:09.704Z,61.00
2019-02-19T09:06:36.066Z,62.97
2019-02-19T09:09:04.335Z,58.50
2019-02-19T09:11:32.710Z,59.93
2019-02-19T09:13:59.072Z,56.40
2019-02-19T09:16:26.070Z,54.70
2019-02-19T09:18:52.588Z,46.43
2019-02-19T09:21:18.929Z,56.33
2019-02-19T09:23:45.323Z,56.70
2019-02-19T09:26:11.658Z,54.77
2019-02-19T09:28:38.114Z,56.33
2019-02-19T09:31:04.442Z,48.53
2019-02-19T09:33:30.891Z,54.90
2019-02-19T09:35:57.302Z,49.47
2019-02-19T09:38:23.651Z,52.13
2019-02-19T09:40:50.075Z,46.37
2019-02-19T09:43:16.462Z,42.30
2019-02-19T09:45:42.823Z,47.03
2019-02-19T09:48:09.193Z,50.80
2019-02-19T09:50:35.561Z,42.20
2019-02-19T09:53:01.935Z,47.53
2019-02-19T09:55:28.332Z,35.10
2019-02-19T09:57:54.684Z,39.57
2019-02-19T10:00:21.031Z,37.53
2019-02-19T10:02:47.442Z,36.50
2019-02-19T10:05:13.794Z,43.37
2019-02-19T10:07:40.216Z,41.60
2019-02-19T10:10:13.125Z,43.17
2019-02-19T10:12:39.532Z,40.63
2019-02-19T10:15:11.053Z,41.30
2019-02-19T10:17:37.838Z,35.93
2019-02-19T10:20:06.774Z,40.70
2019-02-19T10:22:33.187Z,38.43
2019-02-19T10:24:59.546Z,42.03
2019-02-19T10:27:25.920Z,47.47
2019-02-19T10:29:52.307Z,35.63
2019-02-19T10:32:18.737Z,43.23
2019-02-19T10:34:45.098Z,41.57
2019-02-19T10:37:11.504Z,44.33
2019-02-19T10:39:37.877Z,37.90
2019-02-19T10:42:04.224Z,39.60
2019-02-19T10:44:30.620Z,32.93
2019-02-19T10:46:56.947Z,35.43
2019-02-19T10:49:23.333Z,36.67
2019-02-19T10:51:49.683Z,38.47
2019-02-19T10:54:16.031Z,39.90
2019-02-19T10:56:42.469Z,32.37
2019-02-19T10:59:08.828Z,31.93
2019-02-19T11:01:35.231Z,42.70
2019-02-19T11:04:01.572Z,34.23
2019-02-19T11:06:28.142Z,35.63
2019-02-19T11:08:54.521Z,36.87
2019-02-19T11:11:20.897Z,36.23
2019-02-19T11:13:47.231Z,41.27
2019-02-19T11:16:13.697Z,33.97
2019-02-19T11:18:40.050Z,35.20
2019-02-19T11:21:06.399Z,36.63
2019-02-19T11:23:33.790Z,31.70
2019-02-19T11:26:00.288Z,32.33
2019-02-19T11:28:26.668Z,34.13
2019-02-19T11:30:53.158Z,38.47
2019-02-19T11:33:19.499Z,35.30
2019-02-19T11:35:45.988Z,35.80
2019-02-19T11:38:12.392Z,39.73
2019-02-19T11:40:38.726Z,37.77
2019-02-19T11:43:05.130Z,33.70
2019-02-19T11:45:31.517Z,35.77
2019-02-19T11:47:57.867Z,34.63
2019-02-19T11:50:24.216Z,34.00
2019-02-19T11:52:50.562Z,39.17
2019-02-19T11:55:18.163Z,35.40
2019-02-19T11:57:44.683Z,38.60
2019-02-19T12:00:16.622Z,32.47
2019-02-19T12:02:43.121Z,35.20
2019-02-19T12:05:09.560Z,36.43
2019-02-19T12:07:36.001Z,32.20
2019-02-19T12:10:04.303Z,35.20
2019-02-19T12:12:30.657Z,32.70
2019-02-19T12:14:57.141Z,34.07
2019-02-19T12:17:23.507Z,35.57
2019-02-19T12:19:49.883Z,35.07
2019-02-19T12:22:16.364Z,36.17
2019-02-19T12:24:42.672Z,31.13
2019-02-19T12:27:09.102Z,36.70
2019-02-19T12:29:35.452Z,31.17
2019-02-19T12:32:01.878Z,35.33
2019-02-19T12:34:28.279Z,34.20
2019-02-19T12:36:55.515Z,35.73
2019-02-19T12:39:21.934Z,35.40
2019-02-19T12:41:48.354Z,33.73
2019-02-19T12:44:14.777Z,33.47
2019-02-19T12:46:41.165Z,36.27
2019-02-19T12:49:07.554Z,30.60
2019-02-19T12:51:33.950Z,33.90
2019-02-19T12:54:00.309Z,31.07
2019-02-19T12:56:27.061Z,34.00
2019-02-19T12:58:53.651Z,37.40
2019-02-19T13:01:20.137Z,38.30
2019-02-19T13:03:46.509Z,33.83
2019-02-19T13:06:12.882Z,36.23
2019-02-19T13:08:39.220Z,36.87
2019-02-19T13:11:05.627Z,39.03
2019-02-19T13:13:31.975Z,38.10
2019-02-19T13:15:58.389Z,37.87
2019-02-19T13:18:24.732Z,43.40
2019-02-19T13:20:51.172Z,40.00
2019-02-19T13:23:17.546Z,35.90
2019-02-19T13:25:43.927Z,34.43
2019-02-19T13:28:10.263Z,36.50
2019-02-19T13:30:36.707Z,37.60
2019-02-19T13:33:03.285Z,39.33
2019-02-19T13:35:29.748Z,43.77
2019-02-19T13:37:56.151Z,48.20
2019-02-19T13:40:22.500Z,34.07
2019-02-19T13:42:48.931Z,41.40
2019-02-19T13:45:15.586Z,39.53
2019-02-19T13:47:42.334Z,42.97
2019-02-19T13:50:17.517Z,37.43
2019-02-19T13:52:55.249Z,56.57
2019-02-19T13:55:23.532Z,57.57
2019-02-19T13:57:49.891Z,65.67
2019-02-19T14:00:21.058Z,80.20
2019-02-19T14:02:47.548Z,59.30
2019-02-19T14:05:15.036Z,74.37
2019-02-19T14:07:41.452Z,69.57
2019-02-19T14:10:09.408Z,152.27
2019-02-19T14:12:35.822Z,273.87
2019-02-19T14:15:06.279Z,125.57
2019-02-19T14:17:32.676Z,86.87
2019-02-19T14:20:00.925Z,55.40
2019-02-19T14:22:29.238Z,56.73
2019-02-19T14:25:09.584Z,51.80
2019-02-19T14:27:38.001Z,59.07
2019-02-19T14:30:09.714Z,52.97
2019-02-19T14:32:44.069Z,54.90
2019-02-19T14:35:15.280Z,56.37
2019-02-19T14:37:43.497Z,60.53
2019-02-19T14:40:11.783Z,72.23
2019-02-19T14:42:56.703Z,62.67
2019-02-19T14:45:36.719Z,56.87
2019-02-19T14:48:13.764Z,61.50
2019-02-19T14:50:42.089Z,58.93
2019-02-19T14:53:27.191Z,59.93
2019-02-19T14:55:55.515Z,56.70
2019-02-19T14:58:26.791Z,58.87
2019-02-19T15:00:57.933Z,57.27
2019-02-19T15:03:38.451Z,63.90
2019-02-19T15:06:12.339Z,57.50
2019-02-19T15:08:40.592Z,49.47
2019-02-19T15:11:11.852Z,57.70
2019-02-19T15:13:40.105Z,53.60
2019-02-19T15:16:25.691Z,59.00
2019-02-19T15:18:53.941Z,70.93
2019-02-19T15:21:37.387Z,57.73
2019-02-19T15:24:06.151Z,53.93
2019-02-19T15:26:46.525Z,52.07
2019-02-19T15:29:15.521Z,52.73
2019-02-19T15:31:44.468Z,56.30
2019-02-19T15:34:28.075Z,54.90
2019-02-19T15:36:59.598Z,53.53
2019-02-19T15:39:31.222Z,47.80
2019-02-19T15:42:12.157Z,54.13
2019-02-19T15:44:40.403Z,47.80
2019-02-19T15:47:12.331Z,49.50
2019-02-19T15:49:47.518Z,40.90
2019-02-19T15:52:23.335Z,58.67
2019-02-19T15:55:03.673Z,38.97
2019-02-19T15:57:32.046Z,78.33
2019-02-19T16:00:16.960Z,59.00
2019-02-19T16:02:48.622Z,44.67
2019-02-19T16:05:16.915Z,38.43
2019-02-19T16:07:48.306Z,49.00
2019-02-19T16:10:20.257Z,54.23
2019-02-19T16:13:05.338Z,43.13
2019-02-19T16:15:34.046Z,44.33
2019-02-19T16:18:11.498Z,38.30
2019-02-19T16:20:39.884Z,46.40
2019-02-19T16:23:14.340Z,36.33
2019-02-19T16:25:43.041Z,40.53
2019-02-19T16:28:29.210Z,35.33
2019-02-19T16:31:01.142Z,39.60
2019-02-19T16:33:29.465Z,54.30
2019-02-19T16:35:58.204Z,35.73
2019-02-19T16:38:43.439Z,47.37
2019-02-19T16:41:28.264Z,46.87
2019-02-19T16:44:14.944Z,34.93
2019-02-19T16:46:55.065Z,31.30
2019-02-19T16:49:26.170Z,35.20
2019-02-19T16:51:54.516Z,35.43
2019-02-19T16:54:23.236Z,38.10
2019-02-19T16:56:54.543Z,54.93
2019-02-19T16:59:23.001Z,62.70
2019-02-19T17:01:54.191Z,39.70
2019-02-19T17:04:25.804Z,43.90
2019-02-19T17:06:54.093Z,32.03
2019-02-19T17:09:22.675Z,36.10
2019-02-19T17:11:51.003Z,37.77
2019-02-19T17:14:19.923Z,39.27
2019-02-19T17:16:54.405Z,33.60
2019-02-19T17:19:38.262Z,37.83
2019-02-19T17:22:23.209Z,33.90
2019-02-19T17:24:54.522Z,37.00
2019-02-19T17:27:41.066Z,37.20
2019-02-19T17:30:10.852Z,33.77
2019-02-19T17:32:42.069Z,31.87
2019-02-19T17:35:13.642Z,33.93
2019-02-19T17:37:41.982Z,29.50
2019-02-19T17:40:10.789Z,37.10
2019-02-19T17:42:48.858Z,39.00
2019-02-19T17:45:17.479Z,37.73
2019-02-19T17:47:48.935Z,40.93
2019-02-19T17:50:26.520Z,44.73
2019-02-19T17:52:54.816Z,41.00
2019-02-19T17:55:40.422Z,45.60
2019-02-19T17:58:15.147Z,50.57
2019-02-19T18:00:50.182Z,48.60
2019-02-19T18:03:27.857Z,42.83
2019-02-19T18:06:08.411Z,43.90
2019-02-19T18:08:36.842Z,39.07
2019-02-19T18:11:14.605Z,44.53
2019-02-19T18:13:42.911Z,46.37
2019-02-19T18:16:13.931Z,41.33
2019-02-19T18:18:46.210Z,41.10
2019-02-19T18:21:12.708Z,42.27
2019-02-19T18:23:39.272Z,50.90
2019-02-19T18:26:06.088Z,45.93
2019-02-19T18:28:33.406Z,47.07
2019-02-19T18:31:00.276Z,50.03
2019-02-19T18:33:27.979Z,51.00
2019-02-19T18:35:54.952Z,53.17
2019-02-19T18:38:21.653Z,48.80
2019-02-19T18:40:48.348Z,46.67
2019-02-19T18:43:14.729Z,51.70
2019-02-19T18:45:41.260Z,47.73
2019-02-19T18:48:07.654Z,53.13
2019-02-19T18:50:34.095Z,46.03
2019-02-19T18:53:00.485Z,52.27
2019-02-19T18:55:26.931Z,53.83
2019-02-19T18:57:53.430Z,46.13
2019-02-19T19:00:19.860Z,46.50
2019-02-19T19:02:46.346Z,48.17
2019-02-19T19:05:12.759Z,51.20
2019-02-19T19:07:39.277Z,53.73
2019-02-19T19:10:08.733Z,53.80
2019-02-19T19:12:35.178Z,52.90
2019-02-19T19:15:01.535Z,56.33
2019-02-19T19:17:28.942Z,46.17
2019-02-19T19:19:55.430Z,43.53
2019-02-19T19:22:21.895Z,48.23
2019-02-19T19:24:48.304Z,50.97
2019-02-19T19:27:14.718Z,48.93
2019-02-19T19:29:41.136Z,46.90
2019-02-19T19:32:08.614Z,50.30
2019-02-19T19:34:35.583Z,54.50
2019-02-19T19:37:02.310Z,50.13
2019-02-19T19:39:29.038Z,52.43
2019-02-19T19:41:56.252Z,45.70
2019-02-19T19:44:22.693Z,48.37
2019-02-19T19:46:49.079Z,46.20
2019-02-19T19:49:15.567Z,53.13
2019-02-19T19:51:42.014Z,41.70
2019-02-19T19:54:08.437Z,52.07
2019-02-19T19:56:34.858Z,45.50
2019-02-19T19:59:01.312Z,45.13
2019-02-19T20:01:27.818Z,52.47
2019-02-19T20:03:54.279Z,43.80
2019-02-19T20:06:20.972Z,46.30
2019-02-19T20:08:47.519Z,42.87
2019-02-19T20:11:13.984Z,49.67
2019-02-19T20:13:40.360Z,46.03
2019-02-19T20:16:06.801Z,52.80
2019-02-19T20:18:38.977Z,54.17
2019-02-19T20:21:01.882Z,53.67
2019-02-19T20:23:28.843Z,47.47
2019-02-19T20:25:55.257Z,46.70
2019-02-19T20:28:22.065Z,41.03
2019-02-19T20:30:48.641Z,44.17
2019-02-19T20:33:15.261Z,48.23
2019-02-19T20:35:41.764Z,60.27
2019-02-19T20:38:08.255Z,43.40
2019-02-19T20:40:35.885Z,47.37
2019-02-19T20:43:02.315Z,46.20
2019-02-19T20:45:29.313Z,52.67
2019-02-19T20:47:55.717Z,55.67
2019-02-19T20:50:22.797Z,49.33
2019-02-19T20:52:49.691Z,38.37
2019-02-19T20:55:16.154Z,39.97
2019-02-19T20:57:42.613Z,40.20
2019-02-19T21:00:15.217Z,44.33
2019-02-19T21:02:43.910Z,43.17
2019-02-19T21:05:10.641Z,47.30
2019-02-19T21:07:37.108Z,42.63
2019-02-19T21:10:07.686Z,43.80
2019-02-19T21:12:34.838Z,63.00
2019-02-19T21:15:01.449Z,49.77
2019-02-19T21:17:30.523Z,48.37
2019-02-19T21:19:56.981Z,52.50
2019-02-19T21:22:23.415Z,44.17
2019-02-19T21:24:50.098Z,46.50
2019-02-19T21:27:16.605Z,42.30
2019-02-19T21:29:43.533Z,60.90
2019-02-19T21:32:10.049Z,49.07
2019-02-19T21:34:36.601Z,48.80
2019-02-19T21:37:03.077Z,33.77
2019-02-19T21:39:29.415Z,37.53
2019-02-19T21:41:55.954Z,34.27
2019-02-19T21:44:22.481Z,36.27
2019-02-19T21:46:48.910Z,39.93
2019-02-19T21:49:15.224Z,41.13
2019-02-19T21:51:41.903Z,38.70
2019-02-19T21:54:08.318Z,45.50
2019-02-19T21:56:34.815Z,37.67
2019-02-19T21:59:01.188Z,40.90
2019-02-19T22:01:27.644Z,37.53
2019-02-19T22:03:54.181Z,40.07
2019-02-19T22:06:20.623Z,36.93
2019-02-19T22:08:47.165Z,35.83
2019-02-19T22:11:13.818Z,39.80
2019-02-19T22:13:40.215Z,41.00
2019-02-19T22:16:06.621Z,45.83
2019-02-19T22:18:33.073Z,39.40
2019-02-19T22:21:19.563Z,39.70
2019-02-19T22:23:45.930Z,34.63
2019-02-19T22:26:12.390Z,35.90
2019-02-19T22:28:38.740Z,36.57
2019-02-19T22:31:05.148Z,39.40
2019-02-19T22:33:31.515Z,43.40
2019-02-19T22:35:57.941Z,47.17
2019-02-19T22:38:24.365Z,40.23
2019-02-19T22:40:55.264Z,39.53
2019-02-19T22:43:18.981Z,41.57
2019-02-19T22:45:45.403Z,40.73
2019-02-19T22:48:11.763Z,37.43
2019-02-19T22:50:38.207Z,36.70
2019-02-19T22:53:06.463Z,33.03
2019-02-19T22:55:34.797Z,33.60
2019-02-19T22:58:01.158Z,29.83
2019-02-19T23:00:48.628Z,27.93
2019-02-19T23:03:35.690Z,32.93
2019-02-19T23:06:17.562Z,35.27
2019-02-19T23:08:44.049Z,30.17
2019-02-19T23:11:10.456Z,28.23
2019-02-19T23:13:38.540Z,35.77
2019-02-19T23:16:05.177Z,26.90
2019-02-19T23:18:31.739Z,24.00
2019-02-19T23:20:58.113Z,33.53
2019-02-19T23:23:24.536Z,24.00
2019-02-19T23:25:50.925Z,28.40
2019-02-19T23:28:20.483Z,18.77
2019-02-19T23:30:46.847Z,21.43
2019-02-19T23:33:13.264Z,22.07
2019-02-19T23:35:41.644Z,21.93
2019-02-19T23:38:08.073Z,16.83
2019-02-19T23:40:34.542Z,18.63
2019-02-19T23:43:01.046Z,21.70
2019-02-19T23:45:27.430Z,19.37
2019-02-19T23:47:53.847Z,25.63
2019-02-19T23:50:20.201Z,18.93
2019-02-19T23:52:46.665Z,20.03
2019-02-19T23:55:13.024Z,22.77
2019-02-19T23:57:39.423Z,19.67
